Terminal Aerodrome Forecast
Issued by NWS Amarillo, TX

Home | Current Version | Previous Version | Text Only | Print | Product List | Glossary On
Versions: 1 2 3 4 5 6 7 8 9 10 11 12 13 14 15 16 17
000
FTUS44 KAMA 011100
TAFGUY
TAF
KGUY 011137Z 0112/0212 35019G25KT P6SM BKN025
     FM011500 36020G30KT P6SM FEW025 SCT050
     FM020100 03010KT P6SM SCT050=

USA.gov is the U.S. government's official web portal to all federal, state and local government web resources and services.